sensor_id;sensor_type;location;lat;lon;timestamp;P1;durP1;ratioP1;P2;durP2;ratioP2
4096;SDS011;2062;50.694;7.246;2023-03-01T00:02:22;11.60;;;4.80;;
4096;SDS011;2062;50.694;7.246;2023-03-01T00:04:48;15.73;;;5.43;;
4096;SDS011;2062;50.694;7.246;2023-03-01T00:07:15;11.82;;;4.90;;
4096;SDS011;2062;50.694;7.246;2023-03-01T00:09:42;10.23;;;4.30;;
4096;SDS011;2062;50.694;7.246;2023-03-01T00:12:10;11.10;;;4.75;;
4096;SDS011;2062;50.694;7.246;2023-03-01T00:14:37;10.57;;;4.15;;
4096;SDS011;2062;50.694;7.246;2023-03-01T00:17:06;10.43;;;4.30;;
4096;SDS011;2062;50.694;7.246;2023-03-01T00:19:32;12.40;;;4.82;;
4096;SDS011;2062;50.694;7.246;2023-03-01T00:21:59;11.68;;;4.40;;
4096;SDS011;2062;50.694;7.246;2023-03-01T00:24:26;11.38;;;4.68;;
4096;SDS011;2062;50.694;7.246;2023-03-01T00:26:53;11.23;;;4.40;;
4096;SDS011;2062;50.694;7.246;2023-03-01T00:29:22;11.70;;;4.40;;
4096;SDS011;2062;50.694;7.246;2023-03-01T00:31:48;11.48;;;4.07;;
4096;SDS011;2062;50.694;7.246;2023-03-01T00:34:17;10.95;;;4.80;;
4096;SDS011;2062;50.694;7.246;2023-03-01T00:36:44;12.00;;;4.53;;
4096;SDS011;2062;50.694;7.246;2023-03-01T00:39:12;13.07;;;4.40;;
4096;SDS011;2062;50.694;7.246;2023-03-01T00:41:40;10.67;;;4.70;;
4096;SDS011;2062;50.694;7.246;2023-03-01T00:44:08;11.65;;;4.68;;
4096;SDS011;2062;50.694;7.246;2023-03-01T00:46:35;12.23;;;4.68;;
4096;SDS011;2062;50.694;7.246;2023-03-01T00:49:02;12.55;;;4.90;;
4096;SDS011;2062;50.694;7.246;2023-03-01T00:51:31;10.57;;;4.68;;
4096;SDS011;2062;50.694;7.246;2023-03-01T00:54:00;12.57;;;4.20;;
4096;SDS011;2062;50.694;7.246;2023-03-01T00:56:28;12.20;;;4.55;;
4096;SDS011;2062;50.694;7.246;2023-03-01T00:58:56;10.30;;;4.60;;
4096;SDS011;2062;50.694;7.246;2023-03-01T01:01:23;11.13;;;4.10;;
4096;SDS011;2062;50.694;7.246;2023-03-01T01:03:53;12.57;;;4.78;;
4096;SDS011;2062;50.694;7.246;2023-03-01T01:06:22;14.40;;;4.87;;
4096;SDS011;2062;50.694;7.246;2023-03-01T01:08:51;11.88;;;4.85;;
4096;SDS011;2062;50.694;7.246;2023-03-01T01:11:19;13.35;;;5.20;;
4096;SDS011;2062;50.694;7.246;2023-03-01T01:13:47;11.30;;;4.30;;
4096;SDS011;2062;50.694;7.246;2023-03-01T01:16:15;12.70;;;4.38;;
4096;SDS011;2062;50.694;7.246;2023-03-01T01:18:44;12.13;;;4.53;;
4096;SDS011;2062;50.694;7.246;2023-03-01T01:21:13;11.98;;;4.80;;
4096;SDS011;2062;50.694;7.246;2023-03-01T01:23:41;11.30;;;4.68;;
4096;SDS011;2062;50.694;7.246;2023-03-01T01:26:11;12.57;;;4.80;;
4096;SDS011;2062;50.694;7.246;2023-03-01T01:28:39;14.73;;;4.80;;
4096;SDS011;2062;50.694;7.246;2023-03-01T01:31:06;11.70;;;4.83;;
4096;SDS011;2062;50.694;7.246;2023-03-01T01:33:33;13.90;;;4.90;;
4096;SDS011;2062;50.694;7.246;2023-03-01T01:36:00;10.30;;;3.83;;
4096;SDS011;2062;50.694;7.246;2023-03-01T01:38:28;12.40;;;4.95;;
4096;SDS011;2062;50.694;7.246;2023-03-01T01:40:55;12.95;;;4.70;;
4096;SDS011;2062;50.694;7.246;2023-03-01T01:43:24;14.40;;;5.13;;
4096;SDS011;2062;50.694;7.246;2023-03-01T01:45:52;12.30;;;4.47;;
4096;SDS011;2062;50.694;7.246;2023-03-01T01:48:23;13.02;;;4.03;;
4096;SDS011;2062;50.694;7.246;2023-03-01T01:51:05;12.95;;;5.03;;
4096;SDS011;2062;50.694;7.246;2023-03-01T01:53:35;12.88;;;4.47;;
4096;SDS011;2062;50.694;7.246;2023-03-01T01:56:04;12.27;;;4.80;;
4096;SDS011;2062;50.694;7.246;2023-03-01T01:58:36;11.40;;;4.18;;
4096;SDS011;2062;50.694;7.246;2023-03-01T02:01:04;11.75;;;4.40;;
4096;SDS011;2062;50.694;7.246;2023-03-01T02:03:32;12.55;;;5.30;;
4096;SDS011;2062;50.694;7.246;2023-03-01T02:06:03;11.18;;;4.72;;
4096;SDS011;2062;50.694;7.246;2023-03-01T02:08:35;14.77;;;5.10;;
4096;SDS011;2062;50.694;7.246;2023-03-01T02:11:04;16.70;;;4.97;;
4096;SDS011;2062;50.694;7.246;2023-03-01T02:13:32;13.65;;;5.30;;
4096;SDS011;2062;50.694;7.246;2023-03-01T02:16:04;11.07;;;4.90;;
4096;SDS011;2062;50.694;7.246;2023-03-01T02:18:34;13.05;;;5.22;;
4096;SDS011;2062;50.694;7.246;2023-03-01T02:21:04;12.57;;;4.90;;
4096;SDS011;2062;50.694;7.246;2023-03-01T02:23:39;12.30;;;4.72;;
4096;SDS011;2062;50.694;7.246;2023-03-01T02:26:08;13.48;;;5.40;;
4096;SDS011;2062;50.694;7.246;2023-03-01T02:28:43;11.50;;;4.55;;
4096;SDS011;2062;50.694;7.246;2023-03-01T02:31:11;13.23;;;4.70;;
4096;SDS011;2062;50.694;7.246;2023-03-01T02:34:00;13.97;;;5.57;;
4096;SDS011;2062;50.694;7.246;2023-03-01T02:36:30;15.70;;;5.30;;
4096;SDS011;2062;50.694;7.246;2023-03-01T02:39:00;13.82;;;5.28;;
4096;SDS011;2062;50.694;7.246;2023-03-01T02:41:30;16.50;;;5.20;;
4096;SDS011;2062;50.694;7.246;2023-03-01T02:44:01;13.65;;;5.47;;
4096;SDS011;2062;50.694;7.246;2023-03-01T02:46:29;14.33;;;5.17;;
4096;SDS011;2062;50.694;7.246;2023-03-01T02:48:56;13.38;;;5.28;;
4096;SDS011;2062;50.694;7.246;2023-03-01T02:51:27;14.75;;;6.18;;
4096;SDS011;2062;50.694;7.246;2023-03-01T02:54:15;14.35;;;5.32;;
4096;SDS011;2062;50.694;7.246;2023-03-01T02:56:48;12.82;;;4.85;;
4096;SDS011;2062;50.694;7.246;2023-03-01T02:59:18;14.83;;;5.53;;
4096;SDS011;2062;50.694;7.246;2023-03-01T03:01:47;12.50;;;5.03;;
4096;SDS011;2062;50.694;7.246;2023-03-01T03:04:14;13.40;;;5.15;;
4096;SDS011;2062;50.694;7.246;2023-03-01T03:06:43;14.73;;;5.72;;
4096;SDS011;2062;50.694;7.246;2023-03-01T03:09:11;15.38;;;5.60;;
4096;SDS011;2062;50.694;7.246;2023-03-01T03:11:38;14.53;;;5.50;;
4096;SDS011;2062;50.694;7.246;2023-03-01T03:14:06;12.63;;;5.30;;
4096;SDS011;2062;50.694;7.246;2023-03-01T03:16:40;15.65;;;5.82;;
4096;SDS011;2062;50.694;7.246;2023-03-01T03:19:08;15.25;;;5.47;;
4096;SDS011;2062;50.694;7.246;2023-03-01T03:21:35;13.15;;;5.35;;
4096;SDS011;2062;50.694;7.246;2023-03-01T03:24:02;14.30;;;6.00;;
4096;SDS011;2062;50.694;7.246;2023-03-01T03:26:30;17.67;;;5.22;;
4096;SDS011;2062;50.694;7.246;2023-03-01T03:28:57;18.50;;;6.63;;
4096;SDS011;2062;50.694;7.246;2023-03-01T03:31:24;14.90;;;5.57;;
4096;SDS011;2062;50.694;7.246;2023-03-01T03:33:52;14.05;;;5.70;;
4096;SDS011;2062;50.694;7.246;2023-03-01T03:36:20;14.27;;;5.73;;
4096;SDS011;2062;50.694;7.246;2023-03-01T03:38:48;14.45;;;5.43;;
4096;SDS011;2062;50.694;7.246;2023-03-01T03:41:15;16.27;;;5.63;;
4096;SDS011;2062;50.694;7.246;2023-03-01T03:43:43;16.63;;;5.97;;
4096;SDS011;2062;50.694;7.246;2023-03-01T03:46:10;17.17;;;6.03;;
4096;SDS011;2062;50.694;7.246;2023-03-01T03:48:38;16.93;;;6.97;;
4096;SDS011;2062;50.694;7.246;2023-03-01T03:51:09;18.05;;;6.75;;
4096;SDS011;2062;50.694;7.246;2023-03-01T03:53:36;16.85;;;6.50;;
4096;SDS011;2062;50.694;7.246;2023-03-01T03:56:03;17.15;;;6.55;;
4096;SDS011;2062;50.694;7.246;2023-03-01T03:58:31;16.10;;;6.13;;
4096;SDS011;2062;50.694;7.246;2023-03-01T04:00:58;17.47;;;5.83;;
4096;SDS011;2062;50.694;7.246;2023-03-01T04:03:26;17.05;;;6.45;;
4096;SDS011;2062;50.694;7.246;2023-03-01T04:05:54;17.40;;;7.18;;
4096;SDS011;2062;50.694;7.246;2023-03-01T04:08:25;17.10;;;5.82;;
4096;SDS011;2062;50.694;7.246;2023-03-01T04:10:55;15.85;;;6.05;;
4096;SDS011;2062;50.694;7.246;2023-03-01T04:13:24;15.47;;;6.63;;
4096;SDS011;2062;50.694;7.246;2023-03-01T04:15:51;16.10;;;6.00;;
4096;SDS011;2062;50.694;7.246;2023-03-01T04:18:20;17.10;;;6.18;;
4096;SDS011;2062;50.694;7.246;2023-03-01T04:20:52;15.55;;;6.10;;
4096;SDS011;2062;50.694;7.246;2023-03-01T04:23:20;16.25;;;6.25;;
4096;SDS011;2062;50.694;7.246;2023-03-01T04:25:49;12.90;;;5.47;;
4096;SDS011;2062;50.694;7.246;2023-03-01T04:28:20;16.42;;;6.35;;
4096;SDS011;2062;50.694;7.246;2023-03-01T04:30:49;14.38;;;5.72;;
4096;SDS011;2062;50.694;7.246;2023-03-01T04:33:17;16.58;;;5.80;;
4096;SDS011;2062;50.694;7.246;2023-03-01T04:35:44;14.05;;;6.40;;
4096;SDS011;2062;50.694;7.246;2023-03-01T04:38:11;15.00;;;5.93;;
4096;SDS011;2062;50.694;7.246;2023-03-01T04:40:37;18.73;;;6.00;;
4096;SDS011;2062;50.694;7.246;2023-03-01T04:43:09;14.43;;;5.65;;
4096;SDS011;2062;50.694;7.246;2023-03-01T04:45:37;15.82;;;5.47;;
4096;SDS011;2062;50.694;7.246;2023-03-01T04:48:04;18.42;;;6.35;;
4096;SDS011;2062;50.694;7.246;2023-03-01T04:50:31;20.07;;;6.30;;
4096;SDS011;2062;50.694;7.246;2023-03-01T04:52:58;16.95;;;6.50;;
4096;SDS011;2062;50.694;7.246;2023-03-01T04:55:25;17.77;;;5.93;;
4096;SDS011;2062;50.694;7.246;2023-03-01T04:57:53;15.68;;;6.22;;
4096;SDS011;2062;50.694;7.246;2023-03-01T05:00:22;14.32;;;5.95;;
4096;SDS011;2062;50.694;7.246;2023-03-01T05:02:50;16.00;;;6.00;;
4096;SDS011;2062;50.694;7.246;2023-03-01T05:05:19;18.95;;;6.18;;
4096;SDS011;2062;50.694;7.246;2023-03-01T05:07:51;16.90;;;5.93;;
4096;SDS011;2062;50.694;7.246;2023-03-01T05:10:21;13.45;;;5.63;;
4096;SDS011;2062;50.694;7.246;2023-03-01T05:12:49;13.70;;;5.57;;
4096;SDS011;2062;50.694;7.246;2023-03-01T05:15:17;15.37;;;6.00;;
4096;SDS011;2062;50.694;7.246;2023-03-01T05:17:48;15.82;;;6.60;;
4096;SDS011;2062;50.694;7.246;2023-03-01T05:20:15;14.82;;;5.75;;
4096;SDS011;2062;50.694;7.246;2023-03-01T05:22:42;15.60;;;5.97;;
4096;SDS011;2062;50.694;7.246;2023-03-01T05:25:09;15.85;;;5.55;;
4096;SDS011;2062;50.694;7.246;2023-03-01T05:27:36;18.20;;;6.13;;
4096;SDS011;2062;50.694;7.246;2023-03-01T05:30:03;17.13;;;6.03;;
4096;SDS011;2062;50.694;7.246;2023-03-01T05:32:39;19.23;;;6.70;;
4096;SDS011;2062;50.694;7.246;2023-03-01T05:35:11;15.13;;;5.88;;
4096;SDS011;2062;50.694;7.246;2023-03-01T05:37:40;15.05;;;5.82;;
4096;SDS011;2062;50.694;7.246;2023-03-01T05:40:08;19.23;;;6.67;;
4096;SDS011;2062;50.694;7.246;2023-03-01T05:42:40;13.52;;;5.82;;
4096;SDS011;2062;50.694;7.246;2023-03-01T05:45:09;17.63;;;7.32;;
4096;SDS011;2062;50.694;7.246;2023-03-01T05:47:37;16.10;;;6.28;;
4096;SDS011;2062;50.694;7.246;2023-03-01T05:50:08;15.57;;;6.50;;
4096;SDS011;2062;50.694;7.246;2023-03-01T05:52:38;17.17;;;7.00;;
4096;SDS011;2062;50.694;7.246;2023-03-01T05:55:06;20.33;;;7.50;;
4096;SDS011;2062;50.694;7.246;2023-03-01T05:57:33;17.48;;;6.60;;
4096;SDS011;2062;50.694;7.246;2023-03-01T06:00:00;19.20;;;6.82;;
4096;SDS011;2062;50.694;7.246;2023-03-01T06:02:27;18.90;;;7.53;;
4096;SDS011;2062;50.694;7.246;2023-03-01T06:04:55;15.57;;;6.37;;
4096;SDS011;2062;50.694;7.246;2023-03-01T06:07:23;17.38;;;6.40;;
4096;SDS011;2062;50.694;7.246;2023-03-01T06:09:50;19.33;;;6.68;;
4096;SDS011;2062;50.694;7.246;2023-03-01T06:12:16;18.95;;;7.00;;
4096;SDS011;2062;50.694;7.246;2023-03-01T06:14:45;17.83;;;6.70;;
4096;SDS011;2062;50.694;7.246;2023-03-01T06:17:13;15.90;;;6.37;;
4096;SDS011;2062;50.694;7.246;2023-03-01T06:19:40;17.75;;;6.90;;
4096;SDS011;2062;50.694;7.246;2023-03-01T06:22:07;18.60;;;6.90;;
4096;SDS011;2062;50.694;7.246;2023-03-01T06:24:35;17.35;;;6.90;;
4096;SDS011;2062;50.694;7.246;2023-03-01T06:27:02;17.70;;;7.22;;
4096;SDS011;2062;50.694;7.246;2023-03-01T06:29:29;19.77;;;6.20;;
4096;SDS011;2062;50.694;7.246;2023-03-01T06:31:57;17.05;;;6.47;;
4096;SDS011;2062;50.694;7.246;2023-03-01T06:34:24;17.98;;;6.45;;
4096;SDS011;2062;50.694;7.246;2023-03-01T06:36:50;20.73;;;7.20;;
4096;SDS011;2062;50.694;7.246;2023-03-01T06:39:17;16.33;;;5.95;;
4096;SDS011;2062;50.694;7.246;2023-03-01T06:41:46;17.50;;;6.17;;
4096;SDS011;2062;50.694;7.246;2023-03-01T06:44:13;18.77;;;6.25;;
4096;SDS011;2062;50.694;7.246;2023-03-01T06:46:39;18.67;;;6.55;;
4096;SDS011;2062;50.694;7.246;2023-03-01T06:49:06;17.45;;;6.13;;
4096;SDS011;2062;50.694;7.246;2023-03-01T06:51:34;20.08;;;7.28;;
4096;SDS011;2062;50.694;7.246;2023-03-01T06:54:02;18.33;;;6.73;;
4096;SDS011;2062;50.694;7.246;2023-03-01T06:56:30;18.33;;;7.22;;
4096;SDS011;2062;50.694;7.246;2023-03-01T06:58:58;17.58;;;6.70;;
4096;SDS011;2062;50.694;7.246;2023-03-01T07:01:25;20.50;;;7.00;;
4096;SDS011;2062;50.694;7.246;2023-03-01T07:03:52;18.27;;;7.15;;
4096;SDS011;2062;50.694;7.246;2023-03-01T07:06:19;16.60;;;6.57;;
4096;SDS011;2062;50.694;7.246;2023-03-01T07:08:46;21.50;;;8.25;;
4096;SDS011;2062;50.694;7.246;2023-03-01T07:11:13;19.83;;;7.28;;
4096;SDS011;2062;50.694;7.246;2023-03-01T07:13:41;22.23;;;7.43;;
4096;SDS011;2062;50.694;7.246;2023-03-01T07:16:09;21.63;;;6.78;;
4096;SDS011;2062;50.694;7.246;2023-03-01T07:18:36;18.93;;;6.70;;
4096;SDS011;2062;50.694;7.246;2023-03-01T07:21:06;15.70;;;6.43;;
4096;SDS011;2062;50.694;7.246;2023-03-01T07:23:33;17.73;;;6.90;;
4096;SDS011;2062;50.694;7.246;2023-03-01T07:26:00;19.05;;;7.22;;
4096;SDS011;2062;50.694;7.246;2023-03-01T07:28:27;24.25;;;7.57;;
4096;SDS011;2062;50.694;7.246;2023-03-01T07:30:54;19.27;;;7.50;;
4096;SDS011;2062;50.694;7.246;2023-03-01T07:33:22;17.83;;;7.88;;
4096;SDS011;2062;50.694;7.246;2023-03-01T07:35:55;20.42;;;8.30;;
4096;SDS011;2062;50.694;7.246;2023-03-01T07:38:22;21.95;;;8.25;;
4096;SDS011;2062;50.694;7.246;2023-03-01T07:40:49;20.45;;;8.05;;
4096;SDS011;2062;50.694;7.246;2023-03-01T07:43:16;25.73;;;8.17;;
4096;SDS011;2062;50.694;7.246;2023-03-01T07:45:43;19.48;;;8.05;;
4096;SDS011;2062;50.694;7.246;2023-03-01T07:48:10;22.88;;;8.18;;
4096;SDS011;2062;50.694;7.246;2023-03-01T07:50:38;21.02;;;8.68;;
4096;SDS011;2062;50.694;7.246;2023-03-01T07:53:05;27.30;;;9.20;;
4096;SDS011;2062;50.694;7.246;2023-03-01T07:55:32;20.70;;;7.70;;
4096;SDS011;2062;50.694;7.246;2023-03-01T07:57:58;22.70;;;8.80;;
4096;SDS011;2062;50.694;7.246;2023-03-01T08:00:25;25.17;;;9.18;;
4096;SDS011;2062;50.694;7.246;2023-03-01T08:02:52;21.13;;;9.32;;
4096;SDS011;2062;50.694;7.246;2023-03-01T08:05:19;21.88;;;8.88;;
4096;SDS011;2062;50.694;7.246;2023-03-01T08:07:48;20.53;;;8.00;;
4096;SDS011;2062;50.694;7.246;2023-03-01T08:10:15;20.95;;;7.82;;
4096;SDS011;2062;50.694;7.246;2023-03-01T08:12:42;20.42;;;8.10;;
4096;SDS011;2062;50.694;7.246;2023-03-01T08:15:09;22.70;;;7.13;;
4096;SDS011;2062;50.694;7.246;2023-03-01T08:17:38;20.35;;;7.35;;
4096;SDS011;2062;50.694;7.246;2023-03-01T08:20:05;21.80;;;7.87;;
4096;SDS011;2062;50.694;7.246;2023-03-01T08:22:32;17.88;;;7.15;;
4096;SDS011;2062;50.694;7.246;2023-03-01T08:25:01;19.48;;;7.13;;
4096;SDS011;2062;50.694;7.246;2023-03-01T08:27:27;19.35;;;7.18;;
4096;SDS011;2062;50.694;7.246;2023-03-01T08:29:54;16.63;;;6.88;;
4096;SDS011;2062;50.694;7.246;2023-03-01T08:32:21;17.10;;;7.00;;
4096;SDS011;2062;50.694;7.246;2023-03-01T08:34:48;19.92;;;7.18;;
4096;SDS011;2062;50.694;7.246;2023-03-01T08:37:14;19.15;;;7.60;;
4096;SDS011;2062;50.694;7.246;2023-03-01T08:39:41;20.15;;;7.97;;
4096;SDS011;2062;50.694;7.246;2023-03-01T08:42:09;18.13;;;7.20;;
4096;SDS011;2062;50.694;7.246;2023-03-01T08:44:36;18.90;;;7.73;;
4096;SDS011;2062;50.694;7.246;2023-03-01T08:47:03;21.70;;;8.32;;
4096;SDS011;2062;50.694;7.246;2023-03-01T08:49:30;20.88;;;7.60;;
4096;SDS011;2062;50.694;7.246;2023-03-01T08:51:58;19.83;;;7.72;;
4096;SDS011;2062;50.694;7.246;2023-03-01T08:54:25;20.33;;;8.05;;
4096;SDS011;2062;50.694;7.246;2023-03-01T08:56:52;19.77;;;8.20;;
4096;SDS011;2062;50.694;7.246;2023-03-01T08:59:20;19.92;;;7.88;;
4096;SDS011;2062;50.694;7.246;2023-03-01T09:01:47;19.33;;;8.38;;
4096;SDS011;2062;50.694;7.246;2023-03-01T09:04:14;20.20;;;7.80;;
4096;SDS011;2062;50.694;7.246;2023-03-01T09:06:41;17.90;;;7.53;;
4096;SDS011;2062;50.694;7.246;2023-03-01T09:09:10;18.17;;;8.17;;
4096;SDS011;2062;50.694;7.246;2023-03-01T09:11:40;17.83;;;8.30;;
4096;SDS011;2062;50.694;7.246;2023-03-01T09:14:07;19.08;;;8.50;;
4096;SDS011;2062;50.694;7.246;2023-03-01T09:16:35;18.73;;;7.88;;
4096;SDS011;2062;50.694;7.246;2023-03-01T09:19:02;18.80;;;8.23;;
4096;SDS011;2062;50.694;7.246;2023-03-01T09:21:29;22.07;;;8.93;;
4096;SDS011;2062;50.694;7.246;2023-03-01T09:23:57;23.65;;;8.65;;
4096;SDS011;2062;50.694;7.246;2023-03-01T09:26:24;21.48;;;8.57;;
4096;SDS011;2062;50.694;7.246;2023-03-01T09:28:51;21.42;;;8.60;;
4096;SDS011;2062;50.694;7.246;2023-03-01T09:31:21;20.23;;;9.23;;
4096;SDS011;2062;50.694;7.246;2023-03-01T09:33:52;19.43;;;8.70;;
4096;SDS011;2062;50.694;7.246;2023-03-01T09:36:20;16.85;;;8.60;;
4096;SDS011;2062;50.694;7.246;2023-03-01T09:38:48;17.88;;;8.02;;
4096;SDS011;2062;50.694;7.246;2023-03-01T09:41:22;20.15;;;8.38;;
4096;SDS011;2062;50.694;7.246;2023-03-01T09:44:03;16.77;;;8.38;;
4096;SDS011;2062;50.694;7.246;2023-03-01T09:46:38;17.17;;;8.33;;
4096;SDS011;2062;50.694;7.246;2023-03-01T09:49:10;17.65;;;7.75;;
4096;SDS011;2062;50.694;7.246;2023-03-01T09:51:42;16.33;;;8.00;;
4096;SDS011;2062;50.694;7.246;2023-03-01T09:54:19;17.55;;;8.20;;
4096;SDS011;2062;50.694;7.246;2023-03-01T09:56:50;19.33;;;8.70;;
4096;SDS011;2062;50.694;7.246;2023-03-01T09:59:25;16.67;;;7.50;;
4096;SDS011;2062;50.694;7.246;2023-03-01T10:01:58;15.93;;;7.47;;
4096;SDS011;2062;50.694;7.246;2023-03-01T10:04:36;18.20;;;8.10;;
4096;SDS011;2062;50.694;7.246;2023-03-01T10:07:14;17.13;;;7.60;;
4096;SDS011;2062;50.694;7.246;2023-03-01T10:09:53;16.58;;;7.28;;
4096;SDS011;2062;50.694;7.246;2023-03-01T10:12:22;17.60;;;7.57;;
4096;SDS011;2062;50.694;7.246;2023-03-01T10:14:53;16.38;;;7.70;;
4096;SDS011;2062;50.694;7.246;2023-03-01T10:17:28;17.92;;;8.07;;
4096;SDS011;2062;50.694;7.246;2023-03-01T10:20:06;17.77;;;8.20;;
4096;SDS011;2062;50.694;7.246;2023-03-01T10:22:41;16.92;;;7.68;;
4096;SDS011;2062;50.694;7.246;2023-03-01T10:25:12;15.93;;;7.80;;
4096;SDS011;2062;50.694;7.246;2023-03-01T10:27:42;16.40;;;7.40;;
4096;SDS011;2062;50.694;7.246;2023-03-01T10:30:18;16.95;;;7.90;;
4096;SDS011;2062;50.694;7.246;2023-03-01T10:32:48;17.40;;;8.00;;
4096;SDS011;2062;50.694;7.246;2023-03-01T10:35:21;16.02;;;7.78;;
4096;SDS011;2062;50.694;7.246;2023-03-01T10:37:56;16.87;;;8.13;;
4096;SDS011;2062;50.694;7.246;2023-03-01T10:40:24;17.23;;;7.13;;
4096;SDS011;2062;50.694;7.246;2023-03-01T10:42:51;14.27;;;6.93;;
4096;SDS011;2062;50.694;7.246;2023-03-01T10:45:26;16.05;;;7.72;;
4096;SDS011;2062;50.694;7.246;2023-03-01T10:48:02;13.80;;;7.05;;
4096;SDS011;2062;50.694;7.246;2023-03-01T10:50:39;14.77;;;6.97;;
4096;SDS011;2062;50.694;7.246;2023-03-01T10:53:14;17.38;;;7.70;;
4096;SDS011;2062;50.694;7.246;2023-03-01T10:55:48;16.35;;;7.25;;
4096;SDS011;2062;50.694;7.246;2023-03-01T10:58:23;17.13;;;7.90;;
4096;SDS011;2062;50.694;7.246;2023-03-01T11:00:51;16.08;;;7.63;;
4096;SDS011;2062;50.694;7.246;2023-03-01T11:03:21;15.07;;;7.30;;
4096;SDS011;2062;50.694;7.246;2023-03-01T11:05:51;15.95;;;6.90;;
4096;SDS011;2062;50.694;7.246;2023-03-01T11:11:15;19.50;;;7.45;;
4096;SDS011;2062;50.694;7.246;2023-03-01T11:13:50;16.65;;;7.32;;
4096;SDS011;2062;50.694;7.246;2023-03-01T11:16:22;14.93;;;7.37;;
4096;SDS011;2062;50.694;7.246;2023-03-01T11:18:58;14.27;;;7.78;;
4096;SDS011;2062;50.694;7.246;2023-03-01T11:21:28;16.23;;;7.38;;
4096;SDS011;2062;50.694;7.246;2023-03-01T11:23:58;15.77;;;7.20;;
4096;SDS011;2062;50.694;7.246;2023-03-01T11:26:27;15.35;;;7.63;;
4096;SDS011;2062;50.694;7.246;2023-03-01T11:28:58;14.03;;;7.33;;
4096;SDS011;2062;50.694;7.246;2023-03-01T11:31:29;15.43;;;6.60;;
4096;SDS011;2062;50.694;7.246;2023-03-01T11:33:59;12.95;;;6.50;;
4096;SDS011;2062;50.694;7.246;2023-03-01T11:36:35;13.98;;;7.22;;
4096;SDS011;2062;50.694;7.246;2023-03-01T11:39:12;15.13;;;6.90;;
4096;SDS011;2062;50.694;7.246;2023-03-01T11:41:47;15.23;;;6.83;;
4096;SDS011;2062;50.694;7.246;2023-03-01T11:44:18;16.30;;;6.57;;
4096;SDS011;2062;50.694;7.246;2023-03-01T11:46:51;14.40;;;6.70;;
4096;SDS011;2062;50.694;7.246;2023-03-01T11:49:47;13.88;;;6.45;;
4096;SDS011;2062;50.694;7.246;2023-03-01T11:52:24;15.43;;;6.55;;
4096;SDS011;2062;50.694;7.246;2023-03-01T11:55:07;13.10;;;6.50;;
4096;SDS011;2062;50.694;7.246;2023-03-01T11:57:49;13.77;;;6.70;;
4096;SDS011;2062;50.694;7.246;2023-03-01T12:00:44;12.85;;;6.38;;
4096;SDS011;2062;50.694;7.246;2023-03-01T12:03:28;13.75;;;6.43;;
4096;SDS011;2062;50.694;7.246;2023-03-01T12:09:09;10.60;;;5.67;;
4096;SDS011;2062;50.694;7.246;2023-03-01T12:12:00;12.95;;;6.40;;
4096;SDS011;2062;50.694;7.246;2023-03-01T12:14:47;13.32;;;6.63;;
4096;SDS011;2062;50.694;7.246;2023-03-01T12:20:27;14.10;;;6.20;;
4096;SDS011;2062;50.694;7.246;2023-03-01T12:23:13;12.30;;;6.03;;
4096;SDS011;2062;50.694;7.246;2023-03-01T12:25:54;13.02;;;5.72;;
4096;SDS011;2062;50.694;7.246;2023-03-01T12:31:25;9.65;;;4.63;;
4096;SDS011;2062;50.694;7.246;2023-03-01T12:34:24;13.02;;;5.38;;
4096;SDS011;2062;50.694;7.246;2023-03-01T12:37:10;13.37;;;5.40;;
4096;SDS011;2062;50.694;7.246;2023-03-01T12:39:51;12.00;;;5.32;;
4096;SDS011;2062;50.694;7.246;2023-03-01T12:42:40;12.30;;;5.47;;
4096;SDS011;2062;50.694;7.246;2023-03-01T12:45:24;11.05;;;4.90;;
4096;SDS011;2062;50.694;7.246;2023-03-01T12:48:07;12.43;;;5.13;;
4096;SDS011;2062;50.694;7.246;2023-03-01T12:50:55;9.67;;;4.60;;
4096;SDS011;2062;50.694;7.246;2023-03-01T12:53:27;10.95;;;4.95;;
4096;SDS011;2062;50.694;7.246;2023-03-01T12:55:58;10.95;;;4.90;;
4096;SDS011;2062;50.694;7.246;2023-03-01T12:58:29;10.52;;;4.95;;
4096;SDS011;2062;50.694;7.246;2023-03-01T13:01:01;11.10;;;4.57;;
4096;SDS011;2062;50.694;7.246;2023-03-01T13:03:40;12.47;;;4.77;;
4096;SDS011;2062;50.694;7.246;2023-03-01T13:06:23;10.80;;;4.25;;
4096;SDS011;2062;50.694;7.246;2023-03-01T13:08:56;9.05;;;4.28;;
4096;SDS011;2062;50.694;7.246;2023-03-01T13:11:28;9.15;;;4.20;;
4096;SDS011;2062;50.694;7.246;2023-03-01T13:16:54;13.10;;;5.67;;
4096;SDS011;2062;50.694;7.246;2023-03-01T13:19:21;11.73;;;5.13;;
4096;SDS011;2062;50.694;7.246;2023-03-01T13:21:50;11.60;;;5.07;;
4096;SDS011;2062;50.694;7.246;2023-03-01T13:24:25;10.55;;;5.10;;
4096;SDS011;2062;50.694;7.246;2023-03-01T13:27:10;10.48;;;4.88;;
4096;SDS011;2062;50.694;7.246;2023-03-01T13:29:47;11.13;;;4.80;;
4096;SDS011;2062;50.694;7.246;2023-03-01T13:32:20;11.00;;;4.47;;
4096;SDS011;2062;50.694;7.246;2023-03-01T13:34:50;9.50;;;4.40;;
4096;SDS011;2062;50.694;7.246;2023-03-01T13:37:19;10.73;;;4.75;;
4096;SDS011;2062;50.694;7.246;2023-03-01T13:40:03;10.00;;;4.38;;
4096;SDS011;2062;50.694;7.246;2023-03-01T13:42:46;10.97;;;4.60;;
4096;SDS011;2062;50.694;7.246;2023-03-01T13:45:15;10.65;;;4.47;;
4096;SDS011;2062;50.694;7.246;2023-03-01T13:47:48;10.98;;;4.30;;
4096;SDS011;2062;50.694;7.246;2023-03-01T13:50:19;10.73;;;4.43;;
4096;SDS011;2062;50.694;7.246;2023-03-01T13:52:50;10.55;;;4.32;;
4096;SDS011;2062;50.694;7.246;2023-03-01T13:55:25;8.93;;;4.20;;
4096;SDS011;2062;50.694;7.246;2023-03-01T13:57:59;9.43;;;4.00;;
4096;SDS011;2062;50.694;7.246;2023-03-01T14:00:28;9.57;;;4.20;;
4096;SDS011;2062;50.694;7.246;2023-03-01T14:03:03;8.88;;;3.83;;
4096;SDS011;2062;50.694;7.246;2023-03-01T14:05:41;8.68;;;4.13;;
4096;SDS011;2062;50.694;7.246;2023-03-01T14:08:18;9.23;;;3.87;;
4096;SDS011;2062;50.694;7.246;2023-03-01T14:10:53;9.98;;;4.00;;
4096;SDS011;2062;50.694;7.246;2023-03-01T14:13:30;8.85;;;4.07;;
4096;SDS011;2062;50.694;7.246;2023-03-01T14:16:14;9.98;;;4.18;;
4096;SDS011;2062;50.694;7.246;2023-03-01T14:18:52;9.60;;;4.40;;
4096;SDS011;2062;50.694;7.246;2023-03-01T14:21:29;9.23;;;4.10;;
4096;SDS011;2062;50.694;7.246;2023-03-01T14:23:56;9.45;;;4.30;;
4096;SDS011;2062;50.694;7.246;2023-03-01T14:26:24;8.75;;;4.25;;
4096;SDS011;2062;50.694;7.246;2023-03-01T14:28:51;10.80;;;4.30;;
4096;SDS011;2062;50.694;7.246;2023-03-01T14:31:37;11.27;;;4.25;;
4096;SDS011;2062;50.694;7.246;2023-03-01T14:34:16;9.03;;;4.50;;
4096;SDS011;2062;50.694;7.246;2023-03-01T14:36:44;9.25;;;4.30;;
4096;SDS011;2062;50.694;7.246;2023-03-01T14:39:15;12.73;;;4.63;;
4096;SDS011;2062;50.694;7.246;2023-03-01T14:41:43;8.45;;;4.13;;
4096;SDS011;2062;50.694;7.246;2023-03-01T14:44:12;9.43;;;4.20;;
4096;SDS011;2062;50.694;7.246;2023-03-01T14:46:43;9.17;;;4.30;;
4096;SDS011;2062;50.694;7.246;2023-03-01T14:49:12;9.23;;;4.30;;
4096;SDS011;2062;50.694;7.246;2023-03-01T14:51:47;9.45;;;4.03;;
4096;SDS011;2062;50.694;7.246;2023-03-01T14:54:20;8.35;;;3.67;;
4096;SDS011;2062;50.694;7.246;2023-03-01T14:56:49;9.15;;;3.78;;
4096;SDS011;2062;50.694;7.246;2023-03-01T14:59:23;9.37;;;3.90;;
4096;SDS011;2062;50.694;7.246;2023-03-01T15:01:51;7.50;;;3.60;;
4096;SDS011;2062;50.694;7.246;2023-03-01T15:04:22;7.78;;;3.33;;
4096;SDS011;2062;50.694;7.246;2023-03-01T15:06:51;7.13;;;2.95;;
4096;SDS011;2062;50.694;7.246;2023-03-01T15:09:18;6.95;;;2.92;;
4096;SDS011;2062;50.694;7.246;2023-03-01T15:11:47;8.13;;;3.00;;
4096;SDS011;2062;50.694;7.246;2023-03-01T15:14:27;7.43;;;2.88;;
4096;SDS011;2062;50.694;7.246;2023-03-01T15:16:55;8.38;;;3.30;;
4096;SDS011;2062;50.694;7.246;2023-03-01T15:19:24;8.38;;;3.28;;
4096;SDS011;2062;50.694;7.246;2023-03-01T15:21:54;7.85;;;3.75;;
4096;SDS011;2062;50.694;7.246;2023-03-01T15:24:24;9.30;;;3.37;;
4096;SDS011;2062;50.694;7.246;2023-03-01T15:26:54;6.95;;;3.08;;
4096;SDS011;2062;50.694;7.246;2023-03-01T15:29:27;8.95;;;3.75;;
4096;SDS011;2062;50.694;7.246;2023-03-01T15:31:56;7.60;;;3.58;;
4096;SDS011;2062;50.694;7.246;2023-03-01T15:34:27;7.78;;;3.42;;
4096;SDS011;2062;50.694;7.246;2023-03-01T15:36:56;9.83;;;4.03;;
4096;SDS011;2062;50.694;7.246;2023-03-01T15:39:30;9.02;;;3.60;;